sensor_id;sensor_type;location;lat;lon;timestamp;P1;durP1;ratioP1;P2;durP2;ratioP2
19278;SDS011;9773;47.062;15.446;2023-07-02T00:01:46;3.60;;;3.30;;
19278;SDS011;9773;47.062;15.446;2023-07-02T00:04:12;3.07;;;2.87;;
19278;SDS011;9773;47.062;15.446;2023-07-02T00:06:41;3.00;;;2.70;;
19278;SDS011;9773;47.062;15.446;2023-07-02T00:09:07;3.30;;;3.00;;
19278;SDS011;9773;47.062;15.446;2023-07-02T00:11:35;3.60;;;2.97;;
19278;SDS011;9773;47.062;15.446;2023-07-02T00:14:07;2.80;;;2.70;;
19278;SDS011;9773;47.062;15.446;2023-07-02T00:16:35;3.47;;;3.17;;
19278;SDS011;9773;47.062;15.446;2023-07-02T00:19:02;2.60;;;2.50;;
19278;SDS011;9773;47.062;15.446;2023-07-02T00:21:28;3.30;;;3.10;;
19278;SDS011;9773;47.062;15.446;2023-07-02T00:23:54;2.93;;;2.73;;
19278;SDS011;9773;47.062;15.446;2023-07-02T00:26:23;2.83;;;2.60;;
19278;SDS011;9773;47.062;15.446;2023-07-02T00:28:53;3.20;;;2.90;;
19278;SDS011;9773;47.062;15.446;2023-07-02T00:31:21;3.40;;;3.10;;
19278;SDS011;9773;47.062;15.446;2023-07-02T00:33:48;3.00;;;2.80;;
19278;SDS011;9773;47.062;15.446;2023-07-02T00:36:14;3.50;;;3.20;;
19278;SDS011;9773;47.062;15.446;2023-07-02T00:38:41;3.23;;;3.03;;
19278;SDS011;9773;47.062;15.446;2023-07-02T00:41:07;2.87;;;2.73;;
19278;SDS011;9773;47.062;15.446;2023-07-02T00:43:34;2.87;;;2.67;;
19278;SDS011;9773;47.062;15.446;2023-07-02T00:46:00;3.70;;;3.50;;
19278;SDS011;9773;47.062;15.446;2023-07-02T00:48:27;3.23;;;3.03;;
19278;SDS011;9773;47.062;15.446;2023-07-02T00:50:54;3.57;;;3.00;;
19278;SDS011;9773;47.062;15.446;2023-07-02T00:53:20;3.20;;;2.90;;
19278;SDS011;9773;47.062;15.446;2023-07-02T00:55:46;3.60;;;3.00;;
19278;SDS011;9773;47.062;15.446;2023-07-02T00:58:12;3.07;;;2.87;;
19278;SDS011;9773;47.062;15.446;2023-07-02T01:00:41;3.07;;;2.87;;
19278;SDS011;9773;47.062;15.446;2023-07-02T01:03:07;3.07;;;2.87;;
19278;SDS011;9773;47.062;15.446;2023-07-02T01:05:33;3.20;;;3.00;;
19278;SDS011;9773;47.062;15.446;2023-07-02T01:08:04;3.37;;;3.07;;
19278;SDS011;9773;47.062;15.446;2023-07-02T01:10:31;3.40;;;3.10;;
19278;SDS011;9773;47.062;15.446;2023-07-02T01:13:05;3.77;;;3.43;;
19278;SDS011;9773;47.062;15.446;2023-07-02T01:15:36;3.90;;;3.60;;
19278;SDS011;9773;47.062;15.446;2023-07-02T01:18:05;4.27;;;3.67;;
19278;SDS011;9773;47.062;15.446;2023-07-02T01:20:32;4.00;;;3.67;;
19278;SDS011;9773;47.062;15.446;2023-07-02T01:22:59;3.93;;;3.60;;
19278;SDS011;9773;47.062;15.446;2023-07-02T01:25:28;4.57;;;3.70;;
19278;SDS011;9773;47.062;15.446;2023-07-02T01:27:54;4.50;;;4.10;;
19278;SDS011;9773;47.062;15.446;2023-07-02T01:30:21;4.07;;;3.77;;
19278;SDS011;9773;47.062;15.446;2023-07-02T01:32:47;3.67;;;3.37;;
19278;SDS011;9773;47.062;15.446;2023-07-02T01:35:13;3.90;;;3.60;;
19278;SDS011;9773;47.062;15.446;2023-07-02T01:37:39;4.13;;;3.50;;
19278;SDS011;9773;47.062;15.446;2023-07-02T01:40:05;4.03;;;3.73;;
19278;SDS011;9773;47.062;15.446;2023-07-02T01:42:34;4.03;;;3.73;;
19278;SDS011;9773;47.062;15.446;2023-07-02T01:45:00;3.70;;;3.40;;
19278;SDS011;9773;47.062;15.446;2023-07-02T01:47:26;3.40;;;3.20;;
19278;SDS011;9773;47.062;15.446;2023-07-02T01:49:51;3.83;;;3.23;;
19278;SDS011;9773;47.062;15.446;2023-07-02T01:52:17;3.70;;;3.40;;
19278;SDS011;9773;47.062;15.446;2023-07-02T01:54:43;3.90;;;3.60;;
19278;SDS011;9773;47.062;15.446;2023-07-02T01:57:10;3.50;;;3.30;;
19278;SDS011;9773;47.062;15.446;2023-07-02T01:59:36;3.97;;;3.67;;
19278;SDS011;9773;47.062;15.446;2023-07-02T02:02:02;4.03;;;3.40;;
19278;SDS011;9773;47.062;15.446;2023-07-02T02:04:28;4.10;;;3.80;;
19278;SDS011;9773;47.062;15.446;2023-07-02T02:06:54;3.33;;;3.13;;
19278;SDS011;9773;47.062;15.446;2023-07-02T02:09:20;3.70;;;3.40;;
19278;SDS011;9773;47.062;15.446;2023-07-02T02:11:48;3.90;;;3.60;;
19278;SDS011;9773;47.062;15.446;2023-07-02T02:14:15;3.93;;;3.63;;
19278;SDS011;9773;47.062;15.446;2023-07-02T02:16:41;3.37;;;3.17;;
19278;SDS011;9773;47.062;15.446;2023-07-02T02:19:10;4.10;;;3.70;;
19278;SDS011;9773;47.062;15.446;2023-07-02T02:21:36;5.93;;;4.17;;
19278;SDS011;9773;47.062;15.446;2023-07-02T02:24:02;5.27;;;3.70;;
19278;SDS011;9773;47.062;15.446;2023-07-02T02:26:27;5.53;;;4.20;;
19278;SDS011;9773;47.062;15.446;2023-07-02T02:28:55;3.90;;;3.60;;
19278;SDS011;9773;47.062;15.446;2023-07-02T02:31:21;4.00;;;3.70;;
19278;SDS011;9773;47.062;15.446;2023-07-02T02:33:47;4.87;;;3.90;;
19278;SDS011;9773;47.062;15.446;2023-07-02T02:36:13;4.20;;;3.73;;
19278;SDS011;9773;47.062;15.446;2023-07-02T02:38:39;3.83;;;3.60;;
19278;SDS011;9773;47.062;15.446;2023-07-02T02:41:05;4.37;;;4.00;;
19278;SDS011;9773;47.062;15.446;2023-07-02T02:43:33;4.03;;;3.73;;
19278;SDS011;9773;47.062;15.446;2023-07-02T02:45:59;3.97;;;3.67;;
19278;SDS011;9773;47.062;15.446;2023-07-02T02:48:25;3.93;;;3.63;;
19278;SDS011;9773;47.062;15.446;2023-07-02T02:50:51;4.67;;;4.00;;
19278;SDS011;9773;47.062;15.446;2023-07-02T02:53:17;4.20;;;3.90;;
19278;SDS011;9773;47.062;15.446;2023-07-02T02:55:42;4.30;;;4.00;;
19278;SDS011;9773;47.062;15.446;2023-07-02T02:58:08;3.97;;;3.67;;
19278;SDS011;9773;47.062;15.446;2023-07-02T03:00:34;3.80;;;3.50;;
19278;SDS011;9773;47.062;15.446;2023-07-02T03:03:00;5.00;;;4.20;;
19278;SDS011;9773;47.062;15.446;2023-07-02T03:05:26;4.37;;;4.00;;
19278;SDS011;9773;47.062;15.446;2023-07-02T03:07:52;5.00;;;4.47;;
19278;SDS011;9773;47.062;15.446;2023-07-02T03:10:18;5.07;;;4.40;;
19278;SDS011;9773;47.062;15.446;2023-07-02T03:12:44;4.33;;;3.93;;
19278;SDS011;9773;47.062;15.446;2023-07-02T03:15:09;4.40;;;4.00;;
19278;SDS011;9773;47.062;15.446;2023-07-02T03:17:35;4.60;;;4.20;;
19278;SDS011;9773;47.062;15.446;2023-07-02T03:20:02;4.27;;;3.97;;
19278;SDS011;9773;47.062;15.446;2023-07-02T03:22:32;4.63;;;4.20;;
19278;SDS011;9773;47.062;15.446;2023-07-02T03:24:58;4.40;;;4.00;;
19278;SDS011;9773;47.062;15.446;2023-07-02T03:27:25;4.70;;;4.23;;
19278;SDS011;9773;47.062;15.446;2023-07-02T03:29:51;4.33;;;3.93;;
19278;SDS011;9773;47.062;15.446;2023-07-02T03:32:17;4.67;;;4.27;;
19278;SDS011;9773;47.062;15.446;2023-07-02T03:34:43;4.47;;;4.07;;
19278;SDS011;9773;47.062;15.446;2023-07-02T03:37:09;4.63;;;4.23;;
19278;SDS011;9773;47.062;15.446;2023-07-02T03:39:34;4.50;;;4.10;;
19278;SDS011;9773;47.062;15.446;2023-07-02T03:42:00;4.87;;;4.47;;
19278;SDS011;9773;47.062;15.446;2023-07-02T03:44:26;4.80;;;4.03;;
19278;SDS011;9773;47.062;15.446;2023-07-02T03:46:52;4.73;;;4.30;;
19278;SDS011;9773;47.062;15.446;2023-07-02T03:49:18;5.03;;;4.57;;
19278;SDS011;9773;47.062;15.446;2023-07-02T03:51:44;4.70;;;4.17;;
19278;SDS011;9773;47.062;15.446;2023-07-02T03:54:10;4.47;;;4.13;;
19278;SDS011;9773;47.062;15.446;2023-07-02T03:56:35;4.23;;;3.90;;
19278;SDS011;9773;47.062;15.446;2023-07-02T03:59:01;4.33;;;4.03;;
19278;SDS011;9773;47.062;15.446;2023-07-02T04:01:27;4.67;;;4.27;;
19278;SDS011;9773;47.062;15.446;2023-07-02T04:03:53;4.03;;;3.77;;
19278;SDS011;9773;47.062;15.446;2023-07-02T04:06:20;5.00;;;4.50;;
19278;SDS011;9773;47.062;15.446;2023-07-02T04:08:46;6.20;;;4.50;;
19278;SDS011;9773;47.062;15.446;2023-07-02T04:11:11;4.60;;;4.17;;
19278;SDS011;9773;47.062;15.446;2023-07-02T04:13:38;4.83;;;4.43;;
19278;SDS011;9773;47.062;15.446;2023-07-02T04:16:04;4.97;;;4.47;;
19278;SDS011;9773;47.062;15.446;2023-07-02T04:18:30;4.60;;;4.30;;
19278;SDS011;9773;47.062;15.446;2023-07-02T04:20:56;5.20;;;4.63;;
19278;SDS011;9773;47.062;15.446;2023-07-02T04:23:23;4.23;;;3.93;;
19278;SDS011;9773;47.062;15.446;2023-07-02T04:25:49;5.27;;;4.87;;
19278;SDS011;9773;47.062;15.446;2023-07-02T04:28:15;4.30;;;4.00;;
19278;SDS011;9773;47.062;15.446;2023-07-02T04:30:41;4.90;;;4.50;;
19278;SDS011;9773;47.062;15.446;2023-07-02T04:33:07;4.70;;;4.30;;
19278;SDS011;9773;47.062;15.446;2023-07-02T04:35:33;4.40;;;4.10;;
19278;SDS011;9773;47.062;15.446;2023-07-02T04:37:59;4.70;;;4.33;;
19278;SDS011;9773;47.062;15.446;2023-07-02T04:40:26;4.83;;;4.43;;
19278;SDS011;9773;47.062;15.446;2023-07-02T04:42:52;4.47;;;4.17;;
19278;SDS011;9773;47.062;15.446;2023-07-02T04:45:23;5.77;;;4.23;;
19278;SDS011;9773;47.062;15.446;2023-07-02T04:47:50;5.07;;;4.70;;
19278;SDS011;9773;47.062;15.446;2023-07-02T04:50:16;5.10;;;4.60;;
19278;SDS011;9773;47.062;15.446;2023-07-02T04:52:44;5.30;;;4.90;;
19278;SDS011;9773;47.062;15.446;2023-07-02T04:55:10;5.47;;;5.00;;
19278;SDS011;9773;47.062;15.446;2023-07-02T04:57:36;4.77;;;4.17;;
19278;SDS011;9773;47.062;15.446;2023-07-02T05:00:03;4.63;;;4.23;;
19278;SDS011;9773;47.062;15.446;2023-07-02T05:02:31;5.30;;;4.53;;
19278;SDS011;9773;47.062;15.446;2023-07-02T05:04:57;5.13;;;4.73;;
19278;SDS011;9773;47.062;15.446;2023-07-02T05:07:22;6.30;;;4.70;;
19278;SDS011;9773;47.062;15.446;2023-07-02T05:09:48;5.13;;;4.63;;
19278;SDS011;9773;47.062;15.446;2023-07-02T05:12:16;5.30;;;4.80;;
19278;SDS011;9773;47.062;15.446;2023-07-02T05:14:43;5.23;;;4.83;;
19278;SDS011;9773;47.062;15.446;2023-07-02T05:17:08;5.00;;;4.63;;
19278;SDS011;9773;47.062;15.446;2023-07-02T05:19:34;5.40;;;4.90;;
19278;SDS011;9773;47.062;15.446;2023-07-02T05:22:00;5.17;;;4.67;;
19278;SDS011;9773;47.062;15.446;2023-07-02T05:24:25;5.23;;;4.80;;
19278;SDS011;9773;47.062;15.446;2023-07-02T05:26:51;5.10;;;4.70;;
19278;SDS011;9773;47.062;15.446;2023-07-02T05:29:17;5.17;;;4.83;;
19278;SDS011;9773;47.062;15.446;2023-07-02T05:31:43;5.30;;;4.77;;
19278;SDS011;9773;47.062;15.446;2023-07-02T05:34:09;5.50;;;5.03;;
19278;SDS011;9773;47.062;15.446;2023-07-02T05:36:35;5.13;;;4.70;;
19278;SDS011;9773;47.062;15.446;2023-07-02T05:39:01;5.47;;;4.97;;
19278;SDS011;9773;47.062;15.446;2023-07-02T05:41:26;5.73;;;5.20;;
19278;SDS011;9773;47.062;15.446;2023-07-02T05:43:58;5.30;;;4.83;;
19278;SDS011;9773;47.062;15.446;2023-07-02T05:46:24;6.00;;;5.50;;
19278;SDS011;9773;47.062;15.446;2023-07-02T05:48:50;5.97;;;5.47;;
19278;SDS011;9773;47.062;15.446;2023-07-02T05:51:20;5.10;;;4.70;;
19278;SDS011;9773;47.062;15.446;2023-07-02T05:53:46;5.20;;;4.80;;
19278;SDS011;9773;47.062;15.446;2023-07-02T05:56:13;6.10;;;5.60;;
19278;SDS011;9773;47.062;15.446;2023-07-02T05:58:39;5.70;;;5.20;;
19278;SDS011;9773;47.062;15.446;2023-07-02T06:01:04;5.50;;;5.00;;
19278;SDS011;9773;47.062;15.446;2023-07-02T06:03:31;4.97;;;4.67;;
19278;SDS011;9773;47.062;15.446;2023-07-02T06:05:57;5.17;;;4.67;;
19278;SDS011;9773;47.062;15.446;2023-07-02T06:08:22;5.80;;;5.30;;
19278;SDS011;9773;47.062;15.446;2023-07-02T06:10:48;5.20;;;4.80;;
19278;SDS011;9773;47.062;15.446;2023-07-02T06:13:14;5.63;;;5.13;;
19278;SDS011;9773;47.062;15.446;2023-07-02T06:15:40;5.20;;;4.73;;
19278;SDS011;9773;47.062;15.446;2023-07-02T06:18:06;5.20;;;4.80;;
19278;SDS011;9773;47.062;15.446;2023-07-02T06:20:32;4.90;;;4.50;;
19278;SDS011;9773;47.062;15.446;2023-07-02T06:22:57;4.80;;;4.50;;
19278;SDS011;9773;47.062;15.446;2023-07-02T06:25:23;5.40;;;4.90;;
19278;SDS011;9773;47.062;15.446;2023-07-02T06:27:49;6.20;;;5.60;;
19278;SDS011;9773;47.062;15.446;2023-07-02T06:30:16;5.43;;;4.93;;
19278;SDS011;9773;47.062;15.446;2023-07-02T06:32:42;6.03;;;5.53;;
19278;SDS011;9773;47.062;15.446;2023-07-02T06:35:08;5.37;;;4.97;;
19278;SDS011;9773;47.062;15.446;2023-07-02T06:37:34;4.67;;;4.27;;
19278;SDS011;9773;47.062;15.446;2023-07-02T06:40:00;5.30;;;4.90;;
19278;SDS011;9773;47.062;15.446;2023-07-02T06:42:25;5.67;;;5.17;;
19278;SDS011;9773;47.062;15.446;2023-07-02T06:44:51;4.43;;;4.13;;
19278;SDS011;9773;47.062;15.446;2023-07-02T06:47:17;5.47;;;5.07;;
19278;SDS011;9773;47.062;15.446;2023-07-02T06:49:43;5.73;;;4.83;;
19278;SDS011;9773;47.062;15.446;2023-07-02T06:52:09;5.60;;;5.10;;
19278;SDS011;9773;47.062;15.446;2023-07-02T06:54:36;5.83;;;5.33;;
19278;SDS011;9773;47.062;15.446;2023-07-02T06:57:02;5.03;;;4.63;;
19278;SDS011;9773;47.062;15.446;2023-07-02T06:59:27;5.67;;;5.17;;
19278;SDS011;9773;47.062;15.446;2023-07-02T07:01:53;5.53;;;5.03;;
19278;SDS011;9773;47.062;15.446;2023-07-02T07:04:19;5.47;;;5.03;;
19278;SDS011;9773;47.062;15.446;2023-07-02T07:06:45;5.17;;;4.77;;
19278;SDS011;9773;47.062;15.446;2023-07-02T07:09:11;4.20;;;3.90;;
19278;SDS011;9773;47.062;15.446;2023-07-02T07:11:36;4.93;;;4.53;;
19278;SDS011;9773;47.062;15.446;2023-07-02T07:14:02;4.47;;;4.17;;
19278;SDS011;9773;47.062;15.446;2023-07-02T07:16:28;4.03;;;3.73;;
19278;SDS011;9773;47.062;15.446;2023-07-02T07:18:54;4.20;;;3.90;;
19278;SDS011;9773;47.062;15.446;2023-07-02T07:21:19;4.43;;;4.10;;
19278;SDS011;9773;47.062;15.446;2023-07-02T07:23:45;4.63;;;4.20;;
19278;SDS011;9773;47.062;15.446;2023-07-02T07:26:11;4.60;;;4.30;;
19278;SDS011;9773;47.062;15.446;2023-07-02T07:28:37;3.90;;;3.60;;
19278;SDS011;9773;47.062;15.446;2023-07-02T07:31:03;4.00;;;3.70;;
19278;SDS011;9773;47.062;15.446;2023-07-02T07:33:28;3.30;;;3.05;;
19278;SDS011;9773;47.062;15.446;2023-07-02T07:35:54;3.77;;;3.43;;
19278;SDS011;9773;47.062;15.446;2023-07-02T07:38:20;3.37;;;3.07;;
19278;SDS011;9773;47.062;15.446;2023-07-02T07:40:46;3.03;;;2.83;;
19278;SDS011;9773;47.062;15.446;2023-07-02T07:43:11;3.08;;;2.92;;
19278;SDS011;9773;47.062;15.446;2023-07-02T07:45:37;2.50;;;2.40;;
19278;SDS011;9773;47.062;15.446;2023-07-02T07:48:06;3.10;;;2.90;;
19278;SDS011;9773;47.062;15.446;2023-07-02T07:50:32;2.80;;;2.70;;
19278;SDS011;9773;47.062;15.446;2023-07-02T07:52:59;3.23;;;3.03;;
19278;SDS011;9773;47.062;15.446;2023-07-02T07:55:25;2.80;;;2.60;;
19278;SDS011;9773;47.062;15.446;2023-07-02T07:57:51;2.60;;;2.50;;
19278;SDS011;9773;47.062;15.446;2023-07-02T08:00:16;2.97;;;2.77;;
19278;SDS011;9773;47.062;15.446;2023-07-02T08:02:43;2.45;;;2.30;;
19278;SDS011;9773;47.062;15.446;2023-07-02T08:05:11;2.50;;;2.30;;
19278;SDS011;9773;47.062;15.446;2023-07-02T08:07:38;2.30;;;2.20;;
19278;SDS011;9773;47.062;15.446;2023-07-02T08:10:05;2.47;;;2.37;;
19278;SDS011;9773;47.062;15.446;2023-07-02T08:12:33;2.63;;;2.00;;
19278;SDS011;9773;47.062;15.446;2023-07-02T08:14:59;2.65;;;2.55;;
19278;SDS011;9773;47.062;15.446;2023-07-02T08:17:25;2.30;;;2.20;;
19278;SDS011;9773;47.062;15.446;2023-07-02T08:19:50;2.90;;;2.00;;
19278;SDS011;9773;47.062;15.446;2023-07-02T08:22:16;1.80;;;1.80;;
19278;SDS011;9773;47.062;15.446;2023-07-02T08:24:42;1.83;;;1.60;;
19278;SDS011;9773;47.062;15.446;2023-07-02T08:27:08;2.13;;;2.03;;
19278;SDS011;9773;47.062;15.446;2023-07-02T08:29:35;2.20;;;2.10;;
19278;SDS011;9773;47.062;15.446;2023-07-02T08:32:02;2.50;;;2.38;;
19278;SDS011;9773;47.062;15.446;2023-07-02T08:34:28;1.70;;;1.70;;
19278;SDS011;9773;47.062;15.446;2023-07-02T08:36:56;2.10;;;2.03;;
19278;SDS011;9773;47.062;15.446;2023-07-02T08:39:25;2.20;;;2.10;;
19278;SDS011;9773;47.062;15.446;2023-07-02T08:41:51;1.90;;;1.80;;
19278;SDS011;9773;47.062;15.446;2023-07-02T08:44:19;2.00;;;1.90;;
19278;SDS011;9773;47.062;15.446;2023-07-02T08:46:46;2.10;;;1.88;;
19278;SDS011;9773;47.062;15.446;2023-07-02T08:49:15;1.80;;;1.70;;
19278;SDS011;9773;47.062;15.446;2023-07-02T08:51:43;1.90;;;1.90;;
19278;SDS011;9773;47.062;15.446;2023-07-02T08:54:10;2.17;;;2.08;;
19278;SDS011;9773;47.062;15.446;2023-07-02T08:56:36;1.45;;;1.30;;
19278;SDS011;9773;47.062;15.446;2023-07-02T08:59:01;1.65;;;1.65;;
19278;SDS011;9773;47.062;15.446;2023-07-02T09:01:28;1.52;;;1.50;;
19278;SDS011;9773;47.062;15.446;2023-07-02T09:03:58;1.48;;;1.48;;
19278;SDS011;9773;47.062;15.446;2023-07-02T09:06:27;1.40;;;1.40;;
19278;SDS011;9773;47.062;15.446;2023-07-02T09:08:53;1.88;;;1.77;;
19278;SDS011;9773;47.062;15.446;2023-07-02T09:11:28;2.03;;;1.98;;
19278;SDS011;9773;47.062;15.446;2023-07-02T09:13:53;1.70;;;1.60;;
19278;SDS011;9773;47.062;15.446;2023-07-02T09:16:30;1.42;;;1.40;;
19278;SDS011;9773;47.062;15.446;2023-07-02T09:19:05;1.20;;;1.20;;
19278;SDS011;9773;47.062;15.446;2023-07-02T09:21:44;1.80;;;1.70;;
19278;SDS011;9773;47.062;15.446;2023-07-02T09:24:21;1.15;;;1.15;;
19278;SDS011;9773;47.062;15.446;2023-07-02T09:26:51;1.02;;;1.02;;
19278;SDS011;9773;47.062;15.446;2023-07-02T09:29:20;1.20;;;1.20;;
19278;SDS011;9773;47.062;15.446;2023-07-02T09:31:53;1.20;;;1.10;;
19278;SDS011;9773;47.062;15.446;2023-07-02T09:34:29;1.58;;;1.48;;
19278;SDS011;9773;47.062;15.446;2023-07-02T09:36:56;1.50;;;1.50;;
19278;SDS011;9773;47.062;15.446;2023-07-02T09:39:27;1.83;;;1.75;;
19278;SDS011;9773;47.062;15.446;2023-07-02T09:41:56;1.73;;;1.40;;
19278;SDS011;9773;47.062;15.446;2023-07-02T09:44:28;1.60;;;1.50;;
19278;SDS011;9773;47.062;15.446;2023-07-02T09:47:05;1.50;;;1.50;;
19278;SDS011;9773;47.062;15.446;2023-07-02T09:49:36;1.95;;;1.20;;
19278;SDS011;9773;47.062;15.446;2023-07-02T09:52:05;1.80;;;1.70;;
19278;SDS011;9773;47.062;15.446;2023-07-02T09:54:32;1.30;;;1.30;;
19278;SDS011;9773;47.062;15.446;2023-07-02T09:56:58;1.20;;;1.20;;
19278;SDS011;9773;47.062;15.446;2023-07-02T09:59:24;1.30;;;1.30;;
19278;SDS011;9773;47.062;15.446;2023-07-02T10:01:51;1.30;;;1.30;;
19278;SDS011;9773;47.062;15.446;2023-07-02T10:04:18;1.48;;;1.48;;
19278;SDS011;9773;47.062;15.446;2023-07-02T10:06:48;1.42;;;1.42;;
19278;SDS011;9773;47.062;15.446;2023-07-02T10:09:16;1.35;;;1.35;;
19278;SDS011;9773;47.062;15.446;2023-07-02T10:11:42;1.45;;;1.45;;
19278;SDS011;9773;47.062;15.446;2023-07-02T10:14:08;1.38;;;1.38;;
19278;SDS011;9773;47.062;15.446;2023-07-02T10:16:34;1.30;;;1.30;;
19278;SDS011;9773;47.062;15.446;2023-07-02T10:19:17;1.50;;;1.40;;
19278;SDS011;9773;47.062;15.446;2023-07-02T10:21:43;1.60;;;1.50;;
19278;SDS011;9773;47.062;15.446;2023-07-02T10:24:11;1.50;;;1.50;;
19278;SDS011;9773;47.062;15.446;2023-07-02T10:26:51;1.60;;;1.60;;
19278;SDS011;9773;47.062;15.446;2023-07-02T10:29:19;1.80;;;1.70;;
19278;SDS011;9773;47.062;15.446;2023-07-02T10:31:51;1.90;;;1.80;;
19278;SDS011;9773;47.062;15.446;2023-07-02T10:36:55;1.80;;;1.70;;
19278;SDS011;9773;47.062;15.446;2023-07-02T10:39:22;2.40;;;2.20;;
19278;SDS011;9773;47.062;15.446;2023-07-02T10:41:48;1.65;;;1.65;;
19278;SDS011;9773;47.062;15.446;2023-07-02T10:44:14;2.05;;;1.60;;
19278;SDS011;9773;47.062;15.446;2023-07-02T10:46:44;1.40;;;1.40;;
19278;SDS011;9773;47.062;15.446;2023-07-02T10:49:10;1.50;;;1.50;;
19278;SDS011;9773;47.062;15.446;2023-07-02T10:51:37;1.92;;;1.83;;
19278;SDS011;9773;47.062;15.446;2023-07-02T10:54:03;2.38;;;2.15;;
19278;SDS011;9773;47.062;15.446;2023-07-02T10:56:32;1.80;;;1.70;;
19278;SDS011;9773;47.062;15.446;2023-07-02T10:58:59;2.03;;;1.92;;
19278;SDS011;9773;47.062;15.446;2023-07-02T11:01:28;2.00;;;1.90;;
19278;SDS011;9773;47.062;15.446;2023-07-02T11:04:00;1.63;;;1.63;;
19278;SDS011;9773;47.062;15.446;2023-07-02T11:06:27;2.53;;;2.20;;
19278;SDS011;9773;47.062;15.446;2023-07-02T11:08:54;1.90;;;1.80;;
19278;SDS011;9773;47.062;15.446;2023-07-02T11:11:20;2.00;;;1.90;;
19278;SDS011;9773;47.062;15.446;2023-07-02T11:13:48;1.90;;;1.80;;
19278;SDS011;9773;47.062;15.446;2023-07-02T11:16:23;2.05;;;1.95;;
19278;SDS011;9773;47.062;15.446;2023-07-02T11:19:05;2.15;;;1.95;;
19278;SDS011;9773;47.062;15.446;2023-07-02T11:21:35;2.20;;;2.10;;
19278;SDS011;9773;47.062;15.446;2023-07-02T11:24:06;2.30;;;1.95;;
19278;SDS011;9773;47.062;15.446;2023-07-02T11:26:37;2.20;;;2.10;;
19278;SDS011;9773;47.062;15.446;2023-07-02T11:29:03;1.70;;;1.70;;
19278;SDS011;9773;47.062;15.446;2023-07-02T11:31:33;2.00;;;1.90;;
19278;SDS011;9773;47.062;15.446;2023-07-02T11:33:58;2.40;;;2.30;;
19278;SDS011;9773;47.062;15.446;2023-07-02T11:36:24;1.90;;;1.90;;
19278;SDS011;9773;47.062;15.446;2023-07-02T11:38:50;2.03;;;1.92;;
19278;SDS011;9773;47.062;15.446;2023-07-02T11:41:17;1.73;;;1.73;;
19278;SDS011;9773;47.062;15.446;2023-07-02T11:43:43;1.90;;;1.80;;
19278;SDS011;9773;47.062;15.446;2023-07-02T11:46:09;1.90;;;1.90;;
19278;SDS011;9773;47.062;15.446;2023-07-02T11:48:35;2.20;;;2.10;;
19278;SDS011;9773;47.062;15.446;2023-07-02T11:51:01;2.10;;;1.95;;
19278;SDS011;9773;47.062;15.446;2023-07-02T11:53:27;2.20;;;2.10;;
19278;SDS011;9773;47.062;15.446;2023-07-02T11:55:52;2.88;;;2.67;;
19278;SDS011;9773;47.062;15.446;2023-07-02T11:58:18;2.30;;;2.20;;
19278;SDS011;9773;47.062;15.446;2023-07-02T12:00:44;2.28;;;2.17;;
19278;SDS011;9773;47.062;15.446;2023-07-02T12:03:10;2.20;;;2.10;;
19278;SDS011;9773;47.062;15.446;2023-07-02T12:05:36;2.08;;;1.98;;
19278;SDS011;9773;47.062;15.446;2023-07-02T12:08:02;2.10;;;2.00;;
19278;SDS011;9773;47.062;15.446;2023-07-02T12:10:28;2.15;;;2.05;;
19278;SDS011;9773;47.062;15.446;2023-07-02T12:12:54;1.92;;;1.90;;
19278;SDS011;9773;47.062;15.446;2023-07-02T12:15:19;2.33;;;2.13;;
19278;SDS011;9773;47.062;15.446;2023-07-02T12:17:45;1.85;;;1.77;;
19278;SDS011;9773;47.062;15.446;2023-07-02T12:20:11;2.17;;;2.08;;
19278;SDS011;9773;47.062;15.446;2023-07-02T12:22:37;2.30;;;2.20;;
19278;SDS011;9773;47.062;15.446;2023-07-02T12:25:03;2.60;;;2.40;;
19278;SDS011;9773;47.062;15.446;2023-07-02T12:27:29;2.17;;;2.08;;
19278;SDS011;9773;47.062;15.446;2023-07-02T12:29:55;2.25;;;2.15;;
19278;SDS011;9773;47.062;15.446;2023-07-02T12:32:21;1.90;;;1.80;;
19278;SDS011;9773;47.062;15.446;2023-07-02T12:34:48;1.90;;;1.80;;
19278;SDS011;9773;47.062;15.446;2023-07-02T12:37:14;1.40;;;1.40;;
19278;SDS011;9773;47.062;15.446;2023-07-02T12:39:42;1.40;;;1.40;;
19278;SDS011;9773;47.062;15.446;2023-07-02T12:42:09;1.30;;;1.30;;
19278;SDS011;9773;47.062;15.446;2023-07-02T12:44:36;1.42;;;1.42;;
19278;SDS011;9773;47.062;15.446;2023-07-02T12:47:01;1.17;;;1.17;;
19278;SDS011;9773;47.062;15.446;2023-07-02T12:49:27;1.45;;;1.45;;
19278;SDS011;9773;47.062;15.446;2023-07-02T12:51:53;2.65;;;1.27;;
19278;SDS011;9773;47.062;15.446;2023-07-02T12:54:19;1.50;;;1.40;;
19278;SDS011;9773;47.062;15.446;2023-07-02T12:56:44;1.10;;;1.10;;
19278;SDS011;9773;47.062;15.446;2023-07-02T12:59:10;1.40;;;1.40;;
19278;SDS011;9773;47.062;15.446;2023-07-02T13:01:36;1.20;;;1.20;;
19278;SDS011;9773;47.062;15.446;2023-07-02T13:04:03;1.25;;;1.25;;
19278;SDS011;9773;47.062;15.446;2023-07-02T13:06:30;1.30;;;1.30;;
19278;SDS011;9773;47.062;15.446;2023-07-02T13:08:59;1.27;;;1.27;;
19278;SDS011;9773;47.062;15.446;2023-07-02T13:11:25;1.15;;;1.15;;
19278;SDS011;9773;47.062;15.446;2023-07-02T13:13:51;1.10;;;1.10;;
19278;SDS011;9773;47.062;15.446;2023-07-02T13:16:19;1.10;;;1.10;;
19278;SDS011;9773;47.062;15.446;2023-07-02T13:18:45;1.02;;;1.02;;
19278;SDS011;9773;47.062;15.446;2023-07-02T13:21:11;1.23;;;1.23;;
19278;SDS011;9773;47.062;15.446;2023-07-02T13:23:39;1.10;;;1.10;;
19278;SDS011;9773;47.062;15.446;2023-07-02T13:26:07;1.52;;;1.42;;
19278;SDS011;9773;47.062;15.446;2023-07-02T13:28:33;1.20;;;1.20;;
19278;SDS011;9773;47.062;15.446;2023-07-02T13:30:59;1.30;;;1.30;;
19278;SDS011;9773;47.062;15.446;2023-07-02T13:33:25;2.03;;;1.55;;
19278;SDS011;9773;47.062;15.446;2023-07-02T13:35:51;1.30;;;1.30;;
19278;SDS011;9773;47.062;15.446;2023-07-02T13:38:17;1.50;;;1.50;;
19278;SDS011;9773;47.062;15.446;2023-07-02T13:40:43;1.58;;;1.58;;
19278;SDS011;9773;47.062;15.446;2023-07-02T13:43:08;1.40;;;1.40;;
19278;SDS011;9773;47.062;15.446;2023-07-02T13:45:37;2.25;;;1.70;;
19278;SDS011;9773;47.062;15.446;2023-07-02T13:48:06;1.75;;;1.65;;
19278;SDS011;9773;47.062;15.446;2023-07-02T13:50:35;1.85;;;1.80;;
19278;SDS011;9773;47.062;15.446;2023-07-02T13:53:01;2.28;;;2.17;;
19278;SDS011;9773;47.062;15.446;2023-07-02T13:55:27;2.13;;;2.03;;
19278;SDS011;9773;47.062;15.446;2023-07-02T13:57:55;2.72;;;2.50;;
19278;SDS011;9773;47.062;15.446;2023-07-02T14:00:23;2.45;;;2.25;;
19278;SDS011;9773;47.062;15.446;2023-07-02T14:02:49;2.60;;;2.40;;
19278;SDS011;9773;47.062;15.446;2023-07-02T14:05:15;2.45;;;2.35;;
19278;SDS011;9773;47.062;15.446;2023-07-02T14:07:41;2.40;;;2.20;;
19278;SDS011;9773;47.062;15.446;2023-07-02T14:10:07;2.40;;;2.30;;
19278;SDS011;9773;47.062;15.446;2023-07-02T14:12:33;2.72;;;2.53;;
19278;SDS011;9773;47.062;15.446;2023-07-02T14:14:59;2.40;;;2.20;;
19278;SDS011;9773;47.062;15.446;2023-07-02T14:17:25;2.60;;;2.50;;
19278;SDS011;9773;47.062;15.446;2023-07-02T14:19:51;2.08;;;1.98;;
19278;SDS011;9773;47.062;15.446;2023-07-02T14:22:18;2.42;;;2.33;;
19278;SDS011;9773;47.062;15.446;2023-07-02T14:24:44;2.50;;;2.40;;
19278;SDS011;9773;47.062;15.446;2023-07-02T14:27:10;2.50;;;2.40;;
19278;SDS011;9773;47.062;15.446;2023-07-02T14:29:36;2.72;;;2.60;;
19278;SDS011;9773;47.062;15.446;2023-07-02T14:32:02;2.75;;;2.55;;
19278;SDS011;9773;47.062;15.446;2023-07-02T14:34:28;2.33;;;2.13;;
19278;SDS011;9773;47.062;15.446;2023-07-02T14:36:55;2.63;;;2.53;;
19278;SDS011;9773;47.062;15.446;2023-07-02T14:39:21;2.45;;;2.35;;
19278;SDS011;9773;47.062;15.446;2023-07-02T14:41:48;2.60;;;2.50;;
19278;SDS011;9773;47.062;15.446;2023-07-02T14:44:13;2.50;;;2.40;;
19278;SDS011;9773;47.062;15.446;2023-07-02T14:46:39;3.08;;;2.85;;
19278;SDS011;9773;47.062;15.446;2023-07-02T14:49:05;2.90;;;2.70;;